createdAt,value
2023-02-23T00:02:27.554Z,26.30
2023-02-23T00:04:54.223Z,25.80
2023-02-23T00:07:20.843Z,26.41
2023-02-23T00:09:47.453Z,26.14
2023-02-23T00:12:14.066Z,27.17
2023-02-23T00:14:51.688Z,26.62
2023-02-23T00:17:18.350Z,27.43
2023-02-23T00:19:47.828Z,25.99
2023-02-23T00:22:14.467Z,26.34
2023-02-23T00:24:43.352Z,25.80
2023-02-23T00:27:10.528Z,26.60
2023-02-23T00:29:37.150Z,26.46
2023-02-23T00:32:04.353Z,26.41
2023-02-23T00:34:31.044Z,25.00
2023-02-23T00:36:57.650Z,25.64
2023-02-23T00:39:24.426Z,25.89
2023-02-23T00:41:52.562Z,25.96
2023-02-23T00:44:21.121Z,25.80
2023-02-23T00:46:47.992Z,26.07
2023-02-23T00:49:14.689Z,26.27
2023-02-23T00:51:41.860Z,25.82
2023-02-23T00:54:12.012Z,26.70
2023-02-23T00:56:40.083Z,25.66
2023-02-23T00:59:07.869Z,25.73
2023-02-23T01:01:36.413Z,26.13
2023-02-23T01:04:03.610Z,26.34
2023-02-23T01:06:30.409Z,26.35
2023-02-23T01:08:57.082Z,27.16
2023-02-23T01:11:28.467Z,26.35
2023-02-23T01:13:58.219Z,26.78
2023-02-23T01:16:29.218Z,26.11
2023-02-23T01:18:59.184Z,26.25
2023-02-23T01:21:29.800Z,26.71
2023-02-23T01:23:57.151Z,26.87
2023-02-23T01:26:32.906Z,26.51
2023-02-23T01:29:02.416Z,25.03
2023-02-23T01:31:30.252Z,25.79
2023-02-23T01:33:59.902Z,26.13
2023-02-23T01:36:28.367Z,26.64
2023-02-23T01:38:55.977Z,27.20
2023-02-23T01:41:24.219Z,27.59
2023-02-23T01:44:07.819Z,26.96
2023-02-23T01:46:40.356Z,26.99
2023-02-23T01:49:25.154Z,27.04
2023-02-23T01:52:13.369Z,26.90
2023-02-23T01:54:50.203Z,26.42
2023-02-23T01:57:20.223Z,26.39
2023-02-23T01:59:49.963Z,25.89
2023-02-23T02:02:20.793Z,27.08
2023-02-23T02:04:48.136Z,26.83
2023-02-23T02:07:29.786Z,26.45
2023-02-23T02:09:58.982Z,27.19
2023-02-23T02:12:25.669Z,26.79
2023-02-23T02:14:53.403Z,26.68
2023-02-23T02:17:38.971Z,26.68
2023-02-23T02:20:42.086Z,26.58
2023-02-23T02:23:23.763Z,26.51
2023-02-23T02:26:08.898Z,27.07
2023-02-23T02:29:00.273Z,26.68
2023-02-23T02:31:35.798Z,26.58
2023-02-23T02:34:14.264Z,26.27
2023-02-23T02:37:28.774Z,27.15
2023-02-23T02:40:22.086Z,26.09
2023-02-23T02:43:06.321Z,26.29
2023-02-23T02:46:08.095Z,25.41
2023-02-23T02:48:57.661Z,25.72
2023-02-23T02:51:31.400Z,25.74
2023-02-23T02:54:19.257Z,25.72
2023-02-23T02:56:48.808Z,25.49
2023-02-23T02:59:19.641Z,24.84
2023-02-23T03:01:46.337Z,25.30
2023-02-23T03:04:25.325Z,25.78
2023-02-23T03:06:51.913Z,24.89
2023-02-23T03:09:33.517Z,25.58
2023-02-23T03:12:25.142Z,26.65
2023-02-23T03:14:58.978Z,25.84
2023-02-23T03:18:11.168Z,26.08
2023-02-23T03:20:54.338Z,26.36
2023-02-23T03:23:49.033Z,26.40
2023-02-23T03:26:19.653Z,25.70
2023-02-23T03:29:11.553Z,25.70
2023-02-23T03:31:58.395Z,25.88
2023-02-23T03:34:24.965Z,26.31
2023-02-23T03:37:03.808Z,25.67
2023-02-23T03:39:43.467Z,25.47
2023-02-23T03:42:17.782Z,25.87
2023-02-23T03:44:48.801Z,26.62
2023-02-23T03:47:21.388Z,26.26
2023-02-23T03:49:50.949Z,26.65
2023-02-23T03:52:26.791Z,26.08
2023-02-23T03:55:04.795Z,25.93
2023-02-23T03:57:37.449Z,25.82
2023-02-23T04:00:11.864Z,26.45
2023-02-23T04:02:42.919Z,26.48
2023-02-23T04:05:16.767Z,25.80
2023-02-23T04:07:49.203Z,26.65
2023-02-23T04:10:16.234Z,26.63
2023-02-23T04:12:58.048Z,25.52
2023-02-23T04:15:34.018Z,26.58
2023-02-23T04:18:01.016Z,25.94
2023-02-23T04:20:27.907Z,25.61
2023-02-23T04:22:54.630Z,26.04
2023-02-23T04:25:21.367Z,25.41
2023-02-23T04:27:48.509Z,25.16
2023-02-23T04:30:15.341Z,25.68
2023-02-23T04:32:42.238Z,25.94
2023-02-23T04:35:10.132Z,25.88
2023-02-23T04:37:37.904Z,27.08
2023-02-23T04:40:06.300Z,25.57
2023-02-23T04:42:32.980Z,26.22
2023-02-23T04:44:59.685Z,25.50
2023-02-23T04:47:26.492Z,25.44
2023-02-23T04:49:53.401Z,26.29
2023-02-23T04:52:20.075Z,25.95
2023-02-23T04:54:46.706Z,25.95
2023-02-23T04:57:13.334Z,25.87
2023-02-23T04:59:40.331Z,26.29
2023-02-23T05:02:07.342Z,26.10
2023-02-23T05:04:34.247Z,25.88
2023-02-23T05:07:01.568Z,25.99
2023-02-23T05:09:28.171Z,25.99
2023-02-23T05:11:54.866Z,26.98
2023-02-23T05:14:22.529Z,26.79
2023-02-23T05:16:49.188Z,26.22
2023-02-23T05:19:16.010Z,25.76
2023-02-23T05:21:42.636Z,25.95
2023-02-23T05:24:09.274Z,25.71
2023-02-23T05:26:35.980Z,24.81
2023-02-23T05:29:03.508Z,25.35
2023-02-23T05:31:30.227Z,25.00
2023-02-23T05:33:56.972Z,24.43
2023-02-23T05:36:23.621Z,24.87
2023-02-23T05:38:50.262Z,25.34
2023-02-23T05:41:20.673Z,25.60
2023-02-23T05:43:50.550Z,24.95
2023-02-23T05:46:21.547Z,23.86
2023-02-23T05:48:48.434Z,24.60
2023-02-23T05:51:17.125Z,24.92
2023-02-23T05:53:45.010Z,24.98
2023-02-23T05:56:17.625Z,25.43
2023-02-23T05:58:44.468Z,25.18
2023-02-23T06:01:11.207Z,25.38
2023-02-23T06:03:38.050Z,26.08
2023-02-23T06:06:05.192Z,26.63
2023-02-23T06:08:31.945Z,26.39
2023-02-23T06:10:58.730Z,26.75
2023-02-23T06:13:25.560Z,27.70
2023-02-23T06:15:52.550Z,27.49
2023-02-23T06:18:19.271Z,28.61
2023-02-23T06:20:46.201Z,28.43
2023-02-23T06:23:13.217Z,27.76
2023-02-23T06:25:39.867Z,28.14
2023-02-23T06:28:06.516Z,29.32
2023-02-23T06:30:33.155Z,27.30
2023-02-23T06:32:59.916Z,26.49
2023-02-23T06:35:26.634Z,26.01
2023-02-23T06:37:53.527Z,25.65
2023-02-23T06:40:21.324Z,27.36
2023-02-23T06:42:50.492Z,31.39
2023-02-23T06:45:18.038Z,36.65
2023-02-23T06:47:45.446Z,32.55
2023-02-23T06:50:12.221Z,32.00
2023-02-23T06:52:38.892Z,30.09
2023-02-23T06:55:06.478Z,28.66
2023-02-23T06:57:33.103Z,26.59
2023-02-23T06:59:59.876Z,25.80
2023-02-23T07:02:26.477Z,26.97
2023-02-23T07:04:53.157Z,25.67
2023-02-23T07:07:19.792Z,24.31
2023-02-23T07:09:46.415Z,23.86
2023-02-23T07:12:13.026Z,23.41
2023-02-23T07:14:39.922Z,23.64
2023-02-23T07:17:06.597Z,23.67
2023-02-23T07:19:33.234Z,22.64
2023-02-23T07:21:59.891Z,23.05
2023-02-23T07:24:26.519Z,22.45
2023-02-23T07:26:53.158Z,22.99
2023-02-23T07:29:19.803Z,22.51
2023-02-23T07:31:46.669Z,21.54
2023-02-23T07:34:13.451Z,21.97
2023-02-23T07:36:40.159Z,21.84
2023-02-23T07:39:07.079Z,21.52
2023-02-23T07:41:33.784Z,21.75
2023-02-23T07:44:00.714Z,22.62
2023-02-23T07:46:27.405Z,23.83
2023-02-23T07:48:54.153Z,25.79
2023-02-23T07:51:21.279Z,25.78
2023-02-23T07:53:48.051Z,26.42
2023-02-23T07:56:14.853Z,26.14
2023-02-23T07:58:43.376Z,25.32
2023-02-23T08:01:11.788Z,25.36
2023-02-23T08:03:38.884Z,26.50
2023-02-23T08:06:06.565Z,25.25
2023-02-23T08:08:33.250Z,25.10
2023-02-23T08:11:04.897Z,24.90
2023-02-23T08:13:32.377Z,24.05
2023-02-23T08:15:59.661Z,23.89
2023-02-23T08:18:26.554Z,23.37
2023-02-23T08:21:04.232Z,22.87
2023-02-23T08:23:33.036Z,22.11
2023-02-23T08:26:01.160Z,21.48
2023-02-23T08:28:29.446Z,21.67
2023-02-23T08:30:56.269Z,23.04
2023-02-23T08:33:22.968Z,23.85
2023-02-23T08:35:51.320Z,24.12
2023-02-23T08:38:19.117Z,24.02
2023-02-23T08:40:46.586Z,23.73
2023-02-23T08:43:13.249Z,23.50
2023-02-23T08:45:40.004Z,23.35
2023-02-23T08:48:08.000Z,23.94
2023-02-23T08:50:35.235Z,24.31
2023-02-23T08:53:01.929Z,25.40
2023-02-23T08:55:28.605Z,26.20
2023-02-23T08:57:55.265Z,25.30
2023-02-23T09:00:22.391Z,24.93
2023-02-23T09:02:49.052Z,24.84
2023-02-23T09:05:17.770Z,26.03
2023-02-23T09:07:45.401Z,27.13
2023-02-23T09:10:14.757Z,26.70
2023-02-23T09:12:41.455Z,25.71
2023-02-23T09:15:09.172Z,25.58
2023-02-23T09:17:36.485Z,27.70
2023-02-23T09:20:04.588Z,27.67
2023-02-23T09:22:31.982Z,28.14
2023-02-23T09:24:58.646Z,28.08
2023-02-23T09:27:25.366Z,27.53
2023-02-23T09:29:54.161Z,28.15
2023-02-23T09:32:21.023Z,28.32
2023-02-23T09:34:47.760Z,27.96
2023-02-23T09:37:14.601Z,28.31
2023-02-23T09:39:41.265Z,28.14
2023-02-23T09:42:24.082Z,28.44
2023-02-23T09:45:16.542Z,28.38
2023-02-23T09:48:23.394Z,28.39
2023-02-23T09:50:56.302Z,27.91
2023-02-23T09:53:22.881Z,28.47
2023-02-23T09:55:53.542Z,27.47
2023-02-23T09:58:26.622Z,27.77
2023-02-23T10:01:11.329Z,29.15
2023-02-23T10:03:54.209Z,29.07
2023-02-23T10:06:22.034Z,29.18
2023-02-23T10:08:55.945Z,29.71
2023-02-23T10:11:38.435Z,30.77
2023-02-23T10:14:45.409Z,30.63
2023-02-23T10:17:22.118Z,29.49
2023-02-23T10:20:26.781Z,29.69
2023-02-23T10:22:57.982Z,29.52
2023-02-23T10:25:28.665Z,28.52
2023-02-23T10:27:58.535Z,28.93
2023-02-23T10:30:28.464Z,28.43
2023-02-23T10:33:13.572Z,28.92
2023-02-23T10:35:40.263Z,28.81
2023-02-23T10:38:18.436Z,28.06
2023-02-23T10:40:50.820Z,27.66
2023-02-23T10:43:17.482Z,27.00
2023-02-23T10:45:47.711Z,26.74
2023-02-23T10:48:19.363Z,26.58
2023-02-23T10:50:48.577Z,26.16
2023-02-23T10:53:28.129Z,26.69
2023-02-23T10:56:15.189Z,25.32
2023-02-23T10:58:51.911Z,24.41
2023-02-23T11:01:49.152Z,23.77
2023-02-23T11:04:32.417Z,25.12
2023-02-23T11:07:16.654Z,25.45
2023-02-23T11:09:47.481Z,26.19
2023-02-23T11:12:20.304Z,26.39
2023-02-23T11:14:50.937Z,27.21
2023-02-23T11:17:29.620Z,20.70
2023-02-23T11:20:02.553Z,18.68
2023-02-23T11:22:36.182Z,18.70
2023-02-23T11:25:15.685Z,18.05
2023-02-23T11:27:48.150Z,17.90
2023-02-23T11:30:16.375Z,18.86
2023-02-23T11:32:44.363Z,19.00
2023-02-23T11:35:13.511Z,18.37
2023-02-23T11:37:40.241Z,18.92
2023-02-23T11:40:21.258Z,24.60
2023-02-23T11:43:14.535Z,26.60
2023-02-23T11:45:51.970Z,26.68
2023-02-23T11:48:28.538Z,26.38
2023-02-23T11:50:57.120Z,26.98
2023-02-23T11:53:39.291Z,26.39
2023-02-23T11:56:07.516Z,26.83
2023-02-23T11:58:47.417Z,27.02
2023-02-23T12:01:17.493Z,25.92
2023-02-23T12:03:57.030Z,26.42
2023-02-23T12:06:39.778Z,27.34
2023-02-23T12:09:27.819Z,26.96
2023-02-23T12:12:06.994Z,26.54
2023-02-23T12:14:42.563Z,27.01
2023-02-23T12:17:19.828Z,27.12
2023-02-23T12:19:59.447Z,26.90
2023-02-23T12:22:37.988Z,28.46
2023-02-23T12:25:13.643Z,27.63
2023-02-23T12:28:07.640Z,27.44
2023-02-23T12:30:51.304Z,28.06
2023-02-23T12:33:39.302Z,28.44
2023-02-23T12:36:26.570Z,28.71
2023-02-23T12:39:00.695Z,28.00
2023-02-23T12:41:38.828Z,27.53
2023-02-23T12:44:30.080Z,28.23
2023-02-23T12:47:09.025Z,27.49
2023-02-23T12:49:39.220Z,28.26
2023-02-23T12:52:19.541Z,28.55
2023-02-23T12:54:46.560Z,28.28
2023-02-23T12:57:40.967Z,28.16
2023-02-23T13:00:36.876Z,28.97
2023-02-23T13:03:25.105Z,28.22
2023-02-23T13:06:02.625Z,27.05
2023-02-23T13:08:32.058Z,26.70
2023-02-23T13:11:16.905Z,26.75
2023-02-23T13:14:16.044Z,26.60
2023-02-23T13:16:50.929Z,27.29
2023-02-23T13:19:34.049Z,27.22
2023-02-23T13:22:24.361Z,26.88
2023-02-23T13:24:57.837Z,26.93
2023-02-23T13:27:50.317Z,26.80
2023-02-23T13:30:17.630Z,26.57
2023-02-23T13:32:46.843Z,26.36
2023-02-23T13:35:25.246Z,26.61
2023-02-23T13:37:59.274Z,25.74
2023-02-23T13:40:35.961Z,25.63
2023-02-23T13:43:20.562Z,26.05
2023-02-23T13:46:05.788Z,25.86
2023-02-23T13:48:56.710Z,24.88
2023-02-23T13:51:39.363Z,25.41
2023-02-23T13:54:16.637Z,24.85
2023-02-23T13:56:58.867Z,24.42
2023-02-23T13:59:37.351Z,24.42
2023-02-23T14:02:22.667Z,23.48
2023-02-23T14:04:50.671Z,24.35
2023-02-23T14:07:30.794Z,23.64
2023-02-23T14:10:06.039Z,23.69
2023-02-23T14:12:40.336Z,24.06
2023-02-23T14:15:25.629Z,24.14
2023-02-23T14:17:57.384Z,23.78
2023-02-23T14:20:54.248Z,22.24
2023-02-23T14:23:21.777Z,23.20
2023-02-23T14:25:48.416Z,23.56
2023-02-23T14:28:46.706Z,22.54
2023-02-23T14:31:13.450Z,21.63
2023-02-23T14:33:43.228Z,21.46
2023-02-23T14:36:22.218Z,20.92
2023-02-23T14:39:01.996Z,21.37
2023-02-23T14:41:59.198Z,21.50
2023-02-23T14:44:38.745Z,21.48
2023-02-23T14:47:42.401Z,21.65
2023-02-23T14:50:19.789Z,20.89
2023-02-23T14:52:47.748Z,20.89
2023-02-23T14:55:29.240Z,21.09
2023-02-23T14:57:57.384Z,20.36
2023-02-23T15:00:28.108Z,20.98
2023-02-23T15:03:10.298Z,20.35
2023-02-23T15:05:45.126Z,21.04
2023-02-23T15:08:20.900Z,20.48
2023-02-23T15:10:51.478Z,21.53
2023-02-23T15:13:31.202Z,21.66
2023-02-23T15:16:04.417Z,20.79
2023-02-23T15:18:38.270Z,19.68
2023-02-23T15:21:12.504Z,19.35
2023-02-23T15:23:40.009Z,19.36
2023-02-23T15:26:29.800Z,19.18
2023-02-23T15:29:22.823Z,19.44
2023-02-23T15:31:55.486Z,19.39
2023-02-23T15:34:25.820Z,19.93
2023-02-23T15:36:56.731Z,20.05
2023-02-23T15:39:48.700Z,20.31
2023-02-23T15:42:24.521Z,20.62
2023-02-23T15:45:05.568Z,21.01
2023-02-23T15:47:37.879Z,20.46
2023-02-23T15:50:18.096Z,20.97
2023-02-23T15:52:52.305Z,20.94
2023-02-23T15:55:25.693Z,20.35
2023-02-23T15:58:00.705Z,21.51
2023-02-23T16:00:39.206Z,21.14
2023-02-23T16:03:08.846Z,21.21
2023-02-23T16:05:41.915Z,21.47
2023-02-23T16:08:24.163Z,21.45
2023-02-23T16:11:00.932Z,21.91
2023-02-23T16:13:28.013Z,21.18
2023-02-23T16:15:56.395Z,21.61
2023-02-23T16:18:35.787Z,21.51
2023-02-23T16:21:04.759Z,21.65
2023-02-23T16:23:34.444Z,21.54
2023-02-23T16:26:12.407Z,21.30
2023-02-23T16:28:44.836Z,22.31
2023-02-23T16:31:13.089Z,21.81
2023-02-23T16:33:51.014Z,22.36
2023-02-23T16:36:24.068Z,22.60
2023-02-23T16:39:00.151Z,22.24
2023-02-23T16:41:33.867Z,23.06
2023-02-23T16:44:05.129Z,23.20
2023-02-23T16:46:53.702Z,22.37
2023-02-23T16:49:20.981Z,22.53
2023-02-23T16:51:47.791Z,21.78
2023-02-23T16:54:14.743Z,21.27
2023-02-23T16:56:41.818Z,21.60
2023-02-23T16:59:16.194Z,20.99
2023-02-23T17:01:43.493Z,21.24
2023-02-23T17:04:15.628Z,21.68
2023-02-23T17:06:43.439Z,22.32
2023-02-23T17:09:11.962Z,22.49
2023-02-23T17:11:41.197Z,22.55
2023-02-23T17:14:07.916Z,23.25
2023-02-23T17:16:34.664Z,22.32
2023-02-23T17:19:01.285Z,22.86
2023-02-23T17:21:27.951Z,21.90
2023-02-23T17:23:54.609Z,21.88
2023-02-23T17:26:23.962Z,20.21
2023-02-23T17:28:51.687Z,20.80
2023-02-23T17:31:20.946Z,20.61
2023-02-23T17:33:49.202Z,22.00
2023-02-23T17:36:17.761Z,21.72
2023-02-23T17:38:44.629Z,20.96
2023-02-23T17:41:19.466Z,21.48
2023-02-23T17:43:46.306Z,21.67
2023-02-23T17:46:13.847Z,20.82
2023-02-23T17:48:40.547Z,19.95
2023-02-23T17:51:09.779Z,20.73
2023-02-23T17:53:36.831Z,19.62
2023-02-23T17:56:04.108Z,19.56
2023-02-23T17:58:31.229Z,19.44
2023-02-23T18:01:01.273Z,19.63
2023-02-23T18:03:30.855Z,18.80
2023-02-23T18:06:09.616Z,18.66
2023-02-23T18:08:37.779Z,18.00
2023-02-23T18:11:04.468Z,19.20
2023-02-23T18:13:31.856Z,18.63
2023-02-23T18:16:03.053Z,18.59
2023-02-23T18:18:30.061Z,18.42
2023-02-23T18:20:59.653Z,18.33
2023-02-23T18:23:28.213Z,17.51
2023-02-23T18:25:55.004Z,17.74
2023-02-23T18:28:21.634Z,17.09
2023-02-23T18:30:48.280Z,17.72
2023-02-23T18:33:15.092Z,17.63
2023-02-23T18:35:43.985Z,18.34
2023-02-23T18:38:12.723Z,18.30
2023-02-23T18:40:39.854Z,19.07
2023-02-23T18:43:07.105Z,18.82
2023-02-23T18:45:34.583Z,18.56
2023-02-23T18:48:01.237Z,18.25
2023-02-23T18:50:28.218Z,17.14
2023-02-23T18:52:56.526Z,16.46
2023-02-23T18:55:23.906Z,15.88
2023-02-23T18:57:51.308Z,15.56
2023-02-23T19:00:19.503Z,15.67
2023-02-23T19:02:46.302Z,16.42
2023-02-23T19:05:15.928Z,17.03
2023-02-23T19:07:43.438Z,17.01
2023-02-23T19:10:13.145Z,17.00
2023-02-23T19:12:39.862Z,16.61
2023-02-23T19:15:07.810Z,16.76
2023-02-23T19:17:36.036Z,16.90
2023-02-23T19:20:04.050Z,16.48
2023-02-23T19:22:30.699Z,15.93
2023-02-23T19:24:57.376Z,15.49
2023-02-23T19:27:24.007Z,15.92
2023-02-23T19:29:50.673Z,15.98
2023-02-23T19:32:17.434Z,15.84
2023-02-23T19:34:44.675Z,15.09
2023-02-23T19:37:11.301Z,14.25
2023-02-23T19:39:38.243Z,14.48
2023-02-23T19:42:04.953Z,13.71
2023-02-23T19:44:31.587Z,13.86
2023-02-23T19:46:58.424Z,13.72
2023-02-23T19:49:25.348Z,13.70
2023-02-23T19:51:52.557Z,13.46
2023-02-23T19:54:19.979Z,13.48
2023-02-23T19:56:47.122Z,13.41
2023-02-23T19:59:15.418Z,13.08
2023-02-23T20:01:42.132Z,13.41
2023-02-23T20:04:09.025Z,13.63
2023-02-23T20:06:41.986Z,13.28
2023-02-23T20:09:08.761Z,12.86
2023-02-23T20:11:35.878Z,12.82
2023-02-23T20:14:04.155Z,12.37
2023-02-23T20:16:31.694Z,11.94
2023-02-23T20:18:58.687Z,10.87
2023-02-23T20:21:27.781Z,10.47
2023-02-23T20:23:55.873Z,10.31
2023-02-23T20:26:29.158Z,10.40
2023-02-23T20:28:57.817Z,9.30
2023-02-23T20:31:28.279Z,9.46
2023-02-23T20:33:57.579Z,9.87
2023-02-23T20:36:25.566Z,9.76
2023-02-23T20:38:53.248Z,9.72
2023-02-23T20:41:22.838Z,9.29
2023-02-23T20:43:49.773Z,9.68
2023-02-23T20:46:16.965Z,9.34
2023-02-23T20:48:43.927Z,8.99
2023-02-23T20:51:12.397Z,8.64
2023-02-23T20:53:40.264Z,8.50
2023-02-23T20:56:09.958Z,8.84
2023-02-23T20:58:38.969Z,8.91
2023-02-23T21:01:13.505Z,9.99
2023-02-23T21:03:40.215Z,9.69
2023-02-23T21:06:06.955Z,10.13
2023-02-23T21:08:33.547Z,10.69
2023-02-23T21:11:06.353Z,12.01
2023-02-23T21:13:33.552Z,11.54
2023-02-23T21:16:00.245Z,10.57
2023-02-23T21:18:28.111Z,9.82
2023-02-23T21:20:55.524Z,10.58
2023-02-23T21:23:26.374Z,10.78
2023-02-23T21:25:52.955Z,10.34
2023-02-23T21:28:20.433Z,10.40
2023-02-23T21:30:47.318Z,10.44
2023-02-23T21:33:14.561Z,10.71
2023-02-23T21:35:43.239Z,10.52
2023-02-23T21:38:09.829Z,11.71
2023-02-23T21:40:36.474Z,11.72
2023-02-23T21:43:03.093Z,12.28
2023-02-23T21:45:29.709Z,12.23
2023-02-23T21:47:56.362Z,16.12
2023-02-23T21:50:23.029Z,17.35
2023-02-23T21:52:49.661Z,16.58
2023-02-23T21:55:24.446Z,12.35
2023-02-23T21:57:51.878Z,12.66
2023-02-23T22:00:21.736Z,12.16
2023-02-23T22:02:51.451Z,12.70
2023-02-23T22:05:19.096Z,12.71
2023-02-23T22:07:51.199Z,12.65
2023-02-23T22:10:23.090Z,13.55
2023-02-23T22:12:50.774Z,14.77
2023-02-23T22:15:17.519Z,15.82
2023-02-23T22:17:44.187Z,16.58
2023-02-23T22:20:11.704Z,16.82
2023-02-23T22:22:38.406Z,20.54
2023-02-23T22:25:07.394Z,20.05
2023-02-23T22:27:34.057Z,20.05
2023-02-23T22:30:02.147Z,21.28
2023-02-23T22:32:30.734Z,21.46
2023-02-23T22:34:57.569Z,22.26
2023-02-23T22:37:24.183Z,21.63
2023-02-23T22:39:50.779Z,22.03
2023-02-23T22:42:17.394Z,22.09
2023-02-23T22:44:44.042Z,22.10
2023-02-23T22:47:10.763Z,21.65
2023-02-23T22:49:37.386Z,21.58
2023-02-23T22:52:04.056Z,21.57
2023-02-23T22:54:30.682Z,21.32
2023-02-23T22:56:57.318Z,21.59
2023-02-23T22:59:23.969Z,21.33
2023-02-23T23:01:50.706Z,21.06
2023-02-23T23:04:17.511Z,20.86
2023-02-23T23:06:44.179Z,21.46
2023-02-23T23:09:12.262Z,21.90
2023-02-23T23:11:39.577Z,20.92
2023-02-23T23:14:06.222Z,21.58
2023-02-23T23:16:35.247Z,22.11
2023-02-23T23:19:06.145Z,20.18
2023-02-23T23:21:34.550Z,20.17
2023-02-23T23:24:03.723Z,20.99
2023-02-23T23:26:30.378Z,21.17
2023-02-23T23:28:59.535Z,21.19
2023-02-23T23:31:32.336Z,20.92
2023-02-23T23:34:01.877Z,19.88
2023-02-23T23:36:40.890Z,20.31
2023-02-23T23:39:07.501Z,19.89
2023-02-23T23:41:34.146Z,19.24
2023-02-23T23:44:01.841Z,18.67
2023-02-23T23:46:31.721Z,17.85
2023-02-23T23:49:00.737Z,17.34
2023-02-23T23:51:32.969Z,17.39
2023-02-23T23:54:01.756Z,16.80
2023-02-23T23:56:29.454Z,16.69
2023-02-23T23:58:59.118Z,16.63
